Time;durP1;ratioP1;P1;durP2;ratioP2;P2;SDS_P1;SDS_P2;PMS_P1;PMS_P2;Temp;Humidity;BMP_temperature;BMP_pressure;BME280_temperature;BME280_humidity;BME280_pressure;Samples;Min_cycle;Max_cycle;Signal;HPM_P1;HPM_P2
2022/07/08 00:00:17;;;;;;;;;;;17.80;94.80;;;;;;4348459;32;43542;-79
2022/07/08 00:02:44;;;;;;;;;;;17.80;94.80;;;;;;4361573;32;43112;-79
2022/07/08 00:05:12;;;;;;;;;;;17.80;94.70;;;;;;4361442;32;42951;-79
2022/07/08 00:07:39;;;;;;;;;;;17.80;95.10;;;;;;4348089;32;43522;-79
2022/07/08 00:10:06;;;;;;;;;;;17.80;94.70;;;;;;4361910;32;43494;-80
2022/07/08 00:12:33;;;;;;;;;;;17.70;94.80;;;;;;4348492;32;44037;-79
2022/07/08 00:15:01;;;;;;;;;;;17.70;94.80;;;;;;4361407;32;41885;-79
2022/07/08 00:17:28;;;;;;;;;;;17.70;94.90;;;;;;4348147;32;43884;-79
2022/07/08 00:19:55;;;;;;;;;;;17.70;95.20;;;;;;4348039;32;42601;-79
2022/07/08 00:22:22;;;;;;;;;;;17.70;94.90;;;;;;4361537;32;43477;-79
2022/07/08 00:24:49;;;;;;;;;;;17.70;94.90;;;;;;4361401;32;43841;-79
2022/07/08 00:27:17;;;;;;;;;;;17.70;94.90;;;;;;4360896;32;43007;-80
2022/07/08 00:29:44;;;;;;;;;;;17.70;95.00;;;;;;4348157;32;42864;-79
2022/07/08 00:32:11;;;;;;;;;;;17.70;95.00;;;;;;4361090;32;42919;-79
2022/07/08 00:34:38;;;;;;;;;;;17.70;95.00;;;;;;4348257;32;44267;-79
2022/07/08 00:37:05;;;;;;;;;;;17.70;95.00;;;;;;4347834;32;43223;-80
2022/07/08 00:39:32;;;;;;;;;;;17.70;95.00;;;;;;4348176;32;44322;-80
2022/07/08 00:41:59;;;;;;;;;;;17.60;95.00;;;;;;4361370;32;42890;-80
2022/07/08 00:44:26;;;;;;;;;;;17.60;95.00;;;;;;4360869;32;43232;-81
2022/07/08 00:46:53;;;;;;;;;;;17.60;95.00;;;;;;4360992;32;45050;-79
2022/07/08 00:49:21;;;;;;;;;;;17.60;95.00;;;;;;4361019;32;42447;-79
2022/07/08 00:51:48;;;;;;;;;;;17.60;95.00;;;;;;4361050;32;42859;-80
2022/07/08 00:54:17;;;;;;;;;;;17.60;95.00;;;;;;4361463;32;43856;-80
2022/07/08 00:56:44;;;;;;;;;;;17.60;95.00;;;;;;4361264;32;43148;-80
2022/07/08 00:59:11;;;;;;;;;;;17.60;95.10;;;;;;4360581;32;45668;-80
2022/07/08 01:01:38;;;;;;;;;;;17.60;95.10;;;;;;4347003;32;44722;-79
2022/07/08 01:04:06;;;;;;;;;;;17.60;95.10;;;;;;4347781;32;43189;-80
2022/07/08 01:06:33;;;;;;;;;;;17.60;95.10;;;;;;4360868;32;43512;-80
2022/07/08 01:09:01;;;;;;;;;;;17.60;95.20;;;;;;4361083;32;43580;-80
2022/07/08 01:11:28;;;;;;;;;;;17.50;95.20;;;;;;4347619;32;45044;-79
2022/07/08 01:13:55;;;;;;;;;;;17.50;95.20;;;;;;4347598;32;43466;-79
2022/07/08 01:16:22;;;;;;;;;;;17.50;95.20;;;;;;4347193;32;42616;-79
2022/07/08 01:18:49;;;;;;;;;;;17.50;95.30;;;;;;4347175;32;45020;-79
2022/07/08 01:21:16;;;;;;;;;;;17.50;95.30;;;;;;4347195;32;42886;-79
2022/07/08 01:23:43;;;;;;;;;;;17.50;95.30;;;;;;4360734;32;43291;-79
2022/07/08 01:26:12;;;;;;;;;;;17.50;95.30;;;;;;4347474;32;44102;-79
2022/07/08 01:28:39;;;;;;;;;;;17.50;95.30;;;;;;4347389;32;45278;-79
2022/07/08 01:31:06;;;;;;;;;;;17.50;95.30;;;;;;4360390;32;42632;-79
2022/07/08 01:33:34;;;;;;;;;;;17.50;95.30;;;;;;4347392;32;43039;-79
2022/07/08 01:36:01;;;;;;;;;;;17.50;95.30;;;;;;4347192;32;43005;-80
2022/07/08 01:38:28;;;;;;;;;;;17.40;95.30;;;;;;4346823;33;42498;-80
2022/07/08 01:40:55;;;;;;;;;;;17.50;95.30;;;;;;4360269;32;43777;-79
2022/07/08 01:43:22;;;;;;;;;;;17.50;95.30;;;;;;4346900;32;43285;-79
2022/07/08 01:45:50;;;;;;;;;;;17.50;95.30;;;;;;4360084;32;43753;-79
2022/07/08 01:48:17;;;;;;;;;;;17.40;95.30;;;;;;4346961;32;42784;-79
2022/07/08 01:50:44;;;;;;;;;;;17.40;95.30;;;;;;4360425;32;42967;-79
2022/07/08 01:53:12;;;;;;;;;;;17.40;95.30;;;;;;4346673;32;42795;-80
2022/07/08 01:55:39;;;;;;;;;;;17.40;95.30;;;;;;4347065;32;43211;-79
2022/07/08 01:58:06;;;;;;;;;;;17.40;95.40;;;;;;4346645;32;42676;-79
2022/07/08 02:00:33;;;;;;;;;;;17.40;95.40;;;;;;4360197;32;44317;-79
2022/07/08 02:03:00;;;;;;;;;;;17.30;95.30;;;;;;4359687;32;44323;-79
2022/07/08 02:05:27;;;;;;;;;;;17.30;95.30;;;;;;4359833;32;43281;-80
2022/07/08 02:07:55;;;;;;;;;;;17.30;95.30;;;;;;4359880;32;43018;-80
2022/07/08 02:10:21;;;;;;;;;;;17.30;95.30;;;;;;4346838;32;43744;-80
2022/07/08 02:12:48;;;;;;;;;;;17.30;95.30;;;;;;4359893;32;44112;-80
2022/07/08 02:15:15;;;;;;;;;;;17.30;95.30;;;;;;4360034;32;42561;-79
2022/07/08 02:17:43;;;;;;;;;;;17.30;95.30;;;;;;4360052;32;43555;-79
2022/07/08 02:20:11;;;;;;;;;;;17.20;95.30;;;;;;4360175;32;42681;-79
2022/07/08 02:22:39;;;;;;;;;;;17.20;95.30;;;;;;4359626;32;44070;-80
2022/07/08 02:25:06;;;;;;;;;;;17.30;95.30;;;;;;4359898;32;42496;-80
2022/07/08 02:27:33;;;;;;;;;;;17.20;95.30;;;;;;4346403;33;41872;-79
2022/07/08 02:30:00;;;;;;;;;;;17.20;95.30;;;;;;4359890;32;44149;-79
2022/07/08 02:32:27;;;;;;;;;;;17.20;95.30;;;;;;4359902;33;42290;-80
2022/07/08 02:34:54;;;;;;;;;;;17.10;95.30;;;;;;4359619;33;43008;-80
2022/07/08 02:37:21;;;;;;;;;;;17.10;95.30;;;;;;4359630;33;42802;-79
2022/07/08 02:39:48;;;;;;;;;;;17.10;95.40;;;;;;4359564;33;44095;-80
2022/07/08 02:42:15;;;;;;;;;;;17.10;95.40;;;;;;4346076;33;43957;-79
2022/07/08 02:44:43;;;;;;;;;;;17.10;95.40;;;;;;4359565;33;43338;-80
2022/07/08 02:47:10;;;;;;;;;;;17.10;95.40;;;;;;4359772;33;44624;-80
2022/07/08 02:49:37;;;;;;;;;;;17.00;95.40;;;;;;4360010;32;44231;-80
2022/07/08 02:52:04;;;;;;;;;;;17.00;95.40;;;;;;4362735;32;43896;-80
2022/07/08 02:54:31;;;;;;;;;;;17.00;95.30;;;;;;4362625;32;43250;-80
2022/07/08 02:56:58;;;;;;;;;;;17.00;95.40;;;;;;4362532;32;44470;-80
2022/07/08 02:59:25;;;;;;;;;;;17.00;95.30;;;;;;4363038;32;43247;-80
2022/07/08 03:01:52;;;;;;;;;;;17.00;95.30;;;;;;4349086;32;42730;-80
2022/07/08 03:04:19;;;;;;;;;;;16.90;95.20;;;;;;4349601;32;43867;-80
2022/07/08 03:06:46;;;;;;;;;;;17.00;95.20;;;;;;4362226;32;44221;-80
2022/07/08 03:09:13;;;;;;;;;;;16.90;95.10;;;;;;4362400;32;44060;-80
2022/07/08 03:11:40;;;;;;;;;;;16.90;95.10;;;;;;4349108;32;43332;-80
2022/07/08 03:14:07;;;;;;;;;;;16.90;95.20;;;;;;4362694;32;43992;-80
2022/07/08 03:16:35;;;;;;;;;;;16.80;95.20;;;;;;4362277;32;43047;-80
2022/07/08 03:19:02;;;;;;;;;;;16.80;95.20;;;;;;4362534;32;43074;-80
2022/07/08 03:21:29;;;;;;;;;;;16.80;95.20;;;;;;4348676;32;43800;-79
2022/07/08 03:23:56;;;;;;;;;;;16.80;95.30;;;;;;4362239;32;42537;-79
2022/07/08 03:26:23;;;;;;;;;;;16.80;95.30;;;;;;4348825;32;42877;-79
2022/07/08 03:28:50;;;;;;;;;;;16.80;95.40;;;;;;4361969;32;43643;-79
2022/07/08 03:31:18;;;;;;;;;;;16.80;95.40;;;;;;4348983;32;44050;-79
2022/07/08 03:33:45;;;;;;;;;;;16.70;95.40;;;;;;4349030;32;44227;-80
2022/07/08 03:36:12;;;;;;;;;;;16.70;95.40;;;;;;4361898;32;43451;-80
2022/07/08 03:38:39;;;;;;;;;;;16.70;95.40;;;;;;4348557;32;42643;-79
2022/07/08 03:41:23;;;;;;;;;;;16.70;95.50;;;;;;4361741;32;42978;-79
2022/07/08 03:43:51;;;;;;;;;;;16.70;95.50;;;;;;4349011;32;43945;-80
2022/07/08 03:46:18;;;;;;;;;;;16.70;95.60;;;;;;4362131;32;45077;-79
2022/07/08 03:48:46;;;;;;;;;;;16.70;95.50;;;;;;4348499;32;43675;-79
2022/07/08 03:51:14;;;;;;;;;;;16.70;95.50;;;;;;4362187;32;44481;-80
2022/07/08 03:53:41;;;;;;;;;;;16.70;95.40;;;;;;4348519;32;44203;-79
2022/07/08 03:56:09;;;;;;;;;;;16.70;95.30;;;;;;4348548;32;43807;-80
2022/07/08 03:58:36;;;;;;;;;;;16.60;95.20;;;;;;4348586;32;44094;-80
2022/07/08 04:01:03;;;;;;;;;;;16.60;95.20;;;;;;4348150;32;42947;-79
2022/07/08 04:03:30;;;;;;;;;;;16.60;95.20;;;;;;4347511;32;44975;-80
2022/07/08 04:05:57;;;;;;;;;;;16.60;95.30;;;;;;4361901;32;44770;-79
2022/07/08 04:08:24;;;;;;;;;;;16.60;95.30;;;;;;4348581;32;45626;-79
2022/07/08 04:10:52;;;;;;;;;;;16.60;95.40;;;;;;4348758;32;43175;-80
2022/07/08 04:13:19;;;;;;;;;;;16.60;95.40;;;;;;4362077;32;44121;-80
2022/07/08 04:15:50;;;;;;;;;;;16.50;95.40;;;;;;4348840;32;44407;-80
2022/07/08 04:18:18;;;;;;;;;;;16.50;95.50;;;;;;4361431;32;43981;-79
2022/07/08 04:20:45;;;;;;;;;;;16.50;95.50;;;;;;4348182;32;43857;-80
2022/07/08 04:23:13;;;;;;;;;;;16.50;95.60;;;;;;4361676;32;44025;-79
2022/07/08 04:25:40;;;;;;;;;;;16.50;95.60;;;;;;4361825;32;43193;-79
2022/07/08 04:28:07;;;;;;;;;;;16.50;95.60;;;;;;4348362;32;43235;-79
2022/07/08 04:30:34;;;;;;;;;;;16.50;95.70;;;;;;4348297;32;44252;-80
2022/07/08 04:33:01;;;;;;;;;;;16.50;95.70;;;;;;4347796;32;42752;-79
2022/07/08 04:35:28;;;;;;;;;;;16.40;95.70;;;;;;4347950;32;42659;-80
2022/07/08 04:37:55;;;;;;;;;;;16.50;95.70;;;;;;4361174;32;43810;-80
2022/07/08 04:40:27;;;;;;;;;;;16.50;95.80;;;;;;4348721;32;43195;-80
2022/07/08 04:42:54;;;;;;;;;;;16.40;95.80;;;;;;4347552;32;43471;-80
2022/07/08 04:45:22;;;;;;;;;;;16.40;95.80;;;;;;4360920;32;43406;-80
2022/07/08 04:47:49;;;;;;;;;;;16.40;95.80;;;;;;4347456;32;44988;-80
2022/07/08 04:50:19;;;;;;;;;;;16.40;95.80;;;;;;4360713;32;43486;-80
2022/07/08 04:52:47;;;;;;;;;;;16.40;95.80;;;;;;4347832;32;43422;-80
2022/07/08 04:55:31;;;;;;;;;;;16.40;95.80;;;;;;4360784;32;44038;-80
2022/07/08 04:57:59;;;;;;;;;;;16.40;95.80;;;;;;4348026;32;45802;-80
2022/07/08 05:00:27;;;;;;;;;;;16.40;95.90;;;;;;4347456;32;45072;-80
2022/07/08 05:02:54;;;;;;;;;;;16.40;96.00;;;;;;4360470;32;42749;-80
2022/07/08 05:05:21;;;;;;;;;;;16.40;96.00;;;;;;4360839;32;43546;-81
2022/07/08 05:07:49;;;;;;;;;;;16.40;96.00;;;;;;4361061;32;43601;-80
2022/07/08 05:10:17;;;;;;;;;;;16.40;96.00;;;;;;4347242;32;43905;-80
2022/07/08 05:12:44;;;;;;;;;;;16.40;96.10;;;;;;4360961;32;44080;-80
2022/07/08 05:15:12;;;;;;;;;;;16.40;96.10;;;;;;4347297;32;42637;-80
2022/07/08 05:17:39;;;;;;;;;;;16.40;96.10;;;;;;4347394;32;43011;-80
2022/07/08 05:20:07;;;;;;;;;;;16.40;96.10;;;;;;4346931;32;42943;-80
2022/07/08 05:22:35;;;;;;;;;;;16.40;96.20;;;;;;4360253;32;42502;-80
2022/07/08 05:25:02;;;;;;;;;;;16.40;96.20;;;;;;4346843;32;44721;-80
2022/07/08 05:27:29;;;;;;;;;;;16.40;96.20;;;;;;4346820;32;43455;-80
2022/07/08 05:29:57;;;;;;;;;;;16.40;96.30;;;;;;4347419;32;43204;-80
2022/07/08 05:32:24;;;;;;;;;;;16.40;96.40;;;;;;4347285;32;44074;-80
2022/07/08 05:34:57;;;;;;;;;;;16.40;96.40;;;;;;4360661;32;43364;-80
2022/07/08 05:37:24;;;;;;;;;;;16.40;96.30;;;;;;4360015;32;44219;-80
2022/07/08 05:39:51;;;;;;;;;;;16.40;96.30;;;;;;4359271;32;42928;-80
2022/07/08 05:42:19;;;;;;;;;;;16.40;96.40;;;;;;4360498;32;43906;-80
2022/07/08 05:44:46;;;;;;;;;;;16.40;96.30;;;;;;4360072;32;43236;-80
2022/07/08 05:47:16;;;;;;;;;;;16.40;96.40;;;;;;4360105;32;43761;-80
2022/07/08 05:49:43;;;;;;;;;;;16.40;96.50;;;;;;4359910;32;44869;-80
2022/07/08 05:52:10;;;;;;;;;;;16.40;96.60;;;;;;4360232;32;43305;-80
2022/07/08 05:54:38;;;;;;;;;;;16.40;96.60;;;;;;4346668;32;43189;-80
2022/07/08 05:57:05;;;;;;;;;;;16.40;96.60;;;;;;4346672;32;42650;-80
2022/07/08 05:59:32;;;;;;;;;;;16.40;96.60;;;;;;4360290;32;42700;-89
2022/07/08 06:01:59;;;;;;;;;;;16.40;96.60;;;;;;4346421;32;43210;-84
2022/07/08 06:04:26;;;;;;;;;;;16.40;96.60;;;;;;4347057;32;43890;-81
2022/07/08 06:06:54;;;;;;;;;;;16.40;96.60;;;;;;4346400;32;45069;-80
2022/07/08 06:09:21;;;;;;;;;;;16.40;96.50;;;;;;4347204;32;20011;-80
2022/07/08 06:11:49;;;;;;;;;;;16.40;96.70;;;;;;4346749;32;42691;-80
2022/07/08 06:14:17;;;;;;;;;;;16.40;96.70;;;;;;4360052;32;43256;-80
2022/07/08 06:16:47;;;;;;;;;;;16.40;96.70;;;;;;4360134;32;42532;-80
2022/07/08 06:19:15;;;;;;;;;;;16.40;96.80;;;;;;4346427;32;43648;-81
2022/07/08 06:21:42;;;;;;;;;;;16.40;96.70;;;;;;4346678;32;43032;-80
2022/07/08 06:24:09;;;;;;;;;;;16.50;96.80;;;;;;4346568;32;43796;-81
2022/07/08 06:26:36;;;;;;;;;;;16.40;96.80;;;;;;4359300;32;44273;-81
2022/07/08 06:29:03;;;;;;;;;;;16.50;97.00;;;;;;4346682;32;44830;-81
2022/07/08 06:31:31;;;;;;;;;;;16.50;96.70;;;;;;4359990;32;44359;-81
2022/07/08 06:33:58;;;;;;;;;;;16.50;96.80;;;;;;4359511;33;44088;-83
2022/07/08 06:36:26;;;;;;;;;;;16.50;96.70;;;;;;4359684;33;43453;-80
2022/07/08 06:38:53;;;;;;;;;;;16.50;96.70;;;;;;4359502;33;43088;-85
2022/07/08 06:41:23;;;;;;;;;;;16.50;96.70;;;;;;4346694;33;43395;-83
2022/07/08 06:43:51;;;;;;;;;;;16.50;96.80;;;;;;4360024;33;42864;-82
2022/07/08 06:46:18;;;;;;;;;;;16.50;96.60;;;;;;4359983;33;43248;-81
2022/07/08 06:48:45;;;;;;;;;;;16.60;96.70;;;;;;4359641;33;43824;-76
2022/07/08 06:51:12;;;;;;;;;;;16.50;96.60;;;;;;4359661;33;42836;-80
2022/07/08 06:56:25;;;;;;;;;;;16.60;96.60;;;;;;4359984;33;42978;-80
2022/07/08 06:58:52;;;;;;;;;;;16.60;96.70;;;;;;4346053;33;42740;-79
2022/07/08 07:01:19;;;;;;;;;;;16.60;96.50;;;;;;4359292;33;42966;-80
2022/07/08 07:03:46;;;;;;;;;;;16.60;96.50;;;;;;4359498;33;44290;-80
2022/07/08 07:06:13;;;;;;;;;;;16.60;96.50;;;;;;4359544;33;44136;-81
2022/07/08 07:08:41;;;;;;;;;;;16.60;96.60;;;;;;4359786;33;46265;-81
2022/07/08 07:11:08;;;;;;;;;;;16.60;96.50;;;;;;4346445;33;44218;-77
2022/07/08 07:13:35;;;;;;;;;;;16.60;96.60;;;;;;4346536;33;43902;-81
2022/07/08 07:16:02;;;;;;;;;;;16.60;96.50;;;;;;4346062;33;43478;-81
2022/07/08 07:18:29;;;;;;;;;;;16.70;96.50;;;;;;4359532;33;43887;-80
2022/07/08 07:20:57;;;;;;;;;;;16.70;96.50;;;;;;4359279;33;43226;-79
2022/07/08 07:23:24;;;;;;;;;;;16.70;96.50;;;;;;4346419;33;43118;-79
2022/07/08 07:25:51;;;;;;;;;;;16.70;96.30;;;;;;4359220;33;43320;-80
2022/07/08 07:28:18;;;;;;;;;;;16.70;96.10;;;;;;4346021;33;43912;-80
2022/07/08 07:30:45;;;;;;;;;;;16.70;96.00;;;;;;4346540;33;44027;-80
2022/07/08 07:33:15;;;;;;;;;;;16.70;96.00;;;;;;4359133;33;44661;-79
2022/07/08 07:35:42;;;;;;;;;;;16.70;96.10;;;;;;4346400;33;43183;-80
2022/07/08 07:38:09;;;;;;;;;;;16.70;96.00;;;;;;4360709;32;43513;-80
2022/07/08 07:40:36;;;;;;;;;;;16.70;95.80;;;;;;4362284;32;43472;-80
2022/07/08 07:43:03;;;;;;;;;;;16.70;95.80;;;;;;4362206;32;44013;-80
2022/07/08 07:45:30;;;;;;;;;;;16.70;96.00;;;;;;4348493;32;42233;-79
2022/07/08 07:47:58;;;;;;;;;;;16.70;95.90;;;;;;4362347;32;43884;-80
2022/07/08 07:50:26;;;;;;;;;;;16.70;95.90;;;;;;4348982;32;44175;-79
2022/07/08 07:52:53;;;;;;;;;;;16.80;96.00;;;;;;4361897;32;44273;-80
2022/07/08 07:55:21;;;;;;;;;;;16.70;96.00;;;;;;4361972;32;44238;-80
2022/07/08 07:57:48;;;;;;;;;;;16.70;96.00;;;;;;4348193;32;42262;-79
2022/07/08 08:00:16;;;;;;;;;;;16.80;96.00;;;;;;4348475;32;43745;-79
2022/07/08 08:02:43;;;;;;;;;;;16.80;95.90;;;;;;4361151;32;43066;-79
2022/07/08 08:05:10;;;;;;;;;;;16.80;95.70;;;;;;4348423;32;44195;-83
2022/07/08 08:07:38;;;;;;;;;;;16.80;95.90;;;;;;4348565;32;43929;-80
2022/07/08 08:10:06;;;;;;;;;;;16.80;95.90;;;;;;4361405;32;42959;-79
2022/07/08 08:12:33;;;;;;;;;;;16.80;95.90;;;;;;4348438;32;45117;-77
2022/07/08 08:15:00;;;;;;;;;;;16.80;95.90;;;;;;4361269;32;42087;-77
2022/07/08 08:17:27;;;;;;;;;;;16.80;95.80;;;;;;4361275;32;42962;-78
2022/07/08 08:19:54;;;;;;;;;;;16.80;95.70;;;;;;4361597;32;44220;-76
2022/07/08 08:22:21;;;;;;;;;;;16.80;95.60;;;;;;4361358;32;42645;-78
2022/07/08 08:24:48;;;;;;;;;;;16.80;95.70;;;;;;4347920;32;43482;-76
2022/07/08 08:27:15;;;;;;;;;;;16.80;95.80;;;;;;4348178;32;43867;-76
2022/07/08 08:29:42;;;;;;;;;;;16.80;95.70;;;;;;4361121;32;42999;-77
2022/07/08 08:32:09;;;;;;;;;;;16.80;95.90;;;;;;4348352;32;43265;-78
2022/07/08 08:34:37;;;;;;;;;;;16.80;95.70;;;;;;4347703;32;44161;-77
2022/07/08 08:37:07;;;;;;;;;;;16.80;95.70;;;;;;4348077;32;43662;-78
2022/07/08 08:39:34;;;;;;;;;;;16.80;95.80;;;;;;4347640;32;43044;-77
2022/07/08 08:42:01;;;;;;;;;;;16.80;95.50;;;;;;4361055;32;45085;-77
2022/07/08 08:44:29;;;;;;;;;;;16.80;95.70;;;;;;4348108;32;45855;-77
2022/07/08 08:46:57;;;;;;;;;;;16.80;95.90;;;;;;4348088;32;44254;-77
2022/07/08 08:49:25;;;;;;;;;;;16.90;95.90;;;;;;4347715;32;43072;-77
2022/07/08 08:51:53;;;;;;;;;;;16.90;95.80;;;;;;4361303;32;43958;-76
2022/07/08 08:54:22;;;;;;;;;;;16.90;95.40;;;;;;4348025;32;43198;-76
2022/07/08 08:56:50;;;;;;;;;;;16.90;95.40;;;;;;4347907;32;43489;-78
2022/07/08 08:59:24;;;;;;;;;;;16.90;95.60;;;;;;4361091;32;42766;-77
2022/07/08 09:01:53;;;;;;;;;;;16.90;95.70;;;;;;4360940;32;44205;-77
2022/07/08 09:04:20;;;;;;;;;;;16.90;95.80;;;;;;4360397;32;42493;-76
2022/07/08 09:06:47;;;;;;;;;;;16.90;95.80;;;;;;4347455;32;43953;-78
2022/07/08 09:09:14;;;;;;;;;;;16.90;95.80;;;;;;4347254;32;43483;-77
2022/07/08 09:11:43;;;;;;;;;;;16.90;95.80;;;;;;4361211;32;44157;-76
2022/07/08 09:14:12;;;;;;;;;;;16.80;95.80;;;;;;4360835;32;44295;-78
2022/07/08 09:16:39;;;;;;;;;;;16.90;96.10;;;;;;4360759;32;43611;-78
2022/07/08 09:19:13;;;;;;;;;;;16.90;96.00;;;;;;4360328;32;43841;-77
2022/07/08 09:21:50;;;;;;;;;;;16.90;96.30;;;;;;4360606;32;42575;-76
2022/07/08 09:24:18;;;;;;;;;;;17.00;96.50;;;;;;4347432;32;43879;-78
2022/07/08 09:26:45;;;;;;;;;;;17.00;96.10;;;;;;4360530;32;42935;-77
2022/07/08 09:29:12;;;;;;;;;;;16.90;95.90;;;;;;4360224;32;42569;-78
2022/07/08 09:31:39;;;;;;;;;;;17.00;96.00;;;;;;4360300;32;44589;-77
2022/07/08 09:34:09;;;;;;;;;;;17.00;96.00;;;;;;4360429;32;43019;-78
2022/07/08 09:36:43;;;;;;;;;;;17.00;96.20;;;;;;4360153;32;42363;-76
2022/07/08 09:39:15;;;;;;;;;;;17.00;96.00;;;;;;4360502;32;43997;-76
2022/07/08 09:41:46;;;;;;;;;;;17.00;96.00;;;;;;4361234;32;20047;-78
2022/07/08 09:44:14;;;;;;;;;;;17.00;96.20;;;;;;4359997;32;43864;-77
2022/07/08 09:46:42;;;;;;;;;;;17.10;96.20;;;;;;4360134;32;44026;-78
2022/07/08 09:49:25;;;;;;;;;;;17.10;96.10;;;;;;4360042;32;43392;-77
2022/07/08 09:51:52;;;;;;;;;;;17.10;96.20;;;;;;4359848;32;44621;-77
2022/07/08 09:54:20;;;;;;;;;;;17.10;96.30;;;;;;4360260;32;43146;-77
2022/07/08 09:57:03;;;;;;;;;;;17.10;96.00;;;;;;4359906;32;43873;-77
2022/07/08 09:59:31;;;;;;;;;;;17.10;95.90;;;;;;4359738;32;42637;-77
2022/07/08 10:01:58;;;;;;;;;;;17.10;96.00;;;;;;4359573;32;44218;-77
2022/07/08 10:04:26;;;;;;;;;;;17.10;96.00;;;;;;4359915;32;43222;-77
2022/07/08 10:06:54;;;;;;;;;;;17.10;96.00;;;;;;4346343;32;44102;-77
2022/07/08 10:09:22;;;;;;;;;;;17.10;95.90;;;;;;4359720;32;43773;-78
2022/07/08 10:11:49;;;;;;;;;;;17.20;96.00;;;;;;4347085;32;22592;-77
2022/07/08 10:14:17;;;;;;;;;;;17.20;96.00;;;;;;4360406;32;43998;-77
2022/07/08 10:16:47;;;;;;;;;;;17.20;96.30;;;;;;4346364;32;44137;-77
2022/07/08 10:19:17;;;;;;;;;;;17.20;96.30;;;;;;4359677;32;43061;-76
2022/07/08 10:21:46;;;;;;;;;;;17.20;96.20;;;;;;4346664;32;42714;-76
2022/07/08 10:24:17;;;;;;;;;;;17.20;96.20;;;;;;4359978;32;43937;-77
2022/07/08 10:26:44;;;;;;;;;;;17.20;96.30;;;;;;4360344;32;40172;-77
2022/07/08 10:29:12;;;;;;;;;;;17.20;96.30;;;;;;4346274;32;43462;-76
2022/07/08 10:31:51;;;;;;;;;;;17.30;96.30;;;;;;4359865;32;43546;-76
2022/07/08 10:34:22;;;;;;;;;;;17.30;96.30;;;;;;4359501;33;42679;-77
2022/07/08 10:36:50;;;;;;;;;;;17.30;96.40;;;;;;4359541;33;42570;-77
2022/07/08 10:39:27;;;;;;;;;;;17.30;96.30;;;;;;4360361;33;33663;-76
2022/07/08 10:41:55;;;;;;;;;;;17.30;96.40;;;;;;4360484;33;22115;-77
2022/07/08 10:44:41;;;;;;;;;;;17.40;96.60;;;;;;4359285;33;42616;-78
2022/07/08 10:47:15;;;;;;;;;;;17.40;96.50;;;;;;4359602;33;44163;-79
2022/07/08 10:49:49;;;;;;;;;;;17.40;96.50;;;;;;4360153;33;44311;-77
2022/07/08 10:52:17;;;;;;;;;;;17.50;96.30;;;;;;4359375;33;42665;-76
2022/07/08 10:54:44;;;;;;;;;;;17.50;96.30;;;;;;4346444;33;43509;-76
2022/07/08 10:57:26;;;;;;;;;;;17.50;96.60;;;;;;4359787;33;43898;-76
2022/07/08 11:00:05;;;;;;;;;;;17.50;96.60;;;;;;4346401;33;44090;-77
2022/07/08 11:02:33;;;;;;;;;;;17.50;96.50;;;;;;4343035;33;44585;-76
2022/07/08 11:05:00;;;;;;;;;;;17.60;96.40;;;;;;4343832;33;43901;-78
2022/07/08 11:07:28;;;;;;;;;;;17.60;96.40;;;;;;4344741;33;42533;-78
2022/07/08 11:10:03;;;;;;;;;;;17.60;96.80;;;;;;4344731;33;44179;-76
2022/07/08 11:12:30;;;;;;;;;;;17.60;96.60;;;;;;4346169;33;22908;-77
2022/07/08 11:14:58;;;;;;;;;;;17.60;96.60;;;;;;4347338;33;44134;-78
2022/07/08 11:17:29;;;;;;;;;;;17.60;96.60;;;;;;4347098;33;43700;-77
2022/07/08 11:19:57;;;;;;;;;;;17.60;96.60;;;;;;4345955;33;44031;-77
2022/07/08 11:22:25;;;;;;;;;;;17.70;96.70;;;;;;4347587;33;44011;-78
2022/07/08 11:24:54;;;;;;;;;;;17.70;96.50;;;;;;4346053;33;43642;-79
2022/07/08 11:27:25;;;;;;;;;;;17.70;96.70;;;;;;4346464;33;44334;-79
2022/07/08 11:29:53;;;;;;;;;;;17.80;96.60;;;;;;4346394;33;44203;-78
2022/07/08 11:32:21;;;;;;;;;;;17.80;96.70;;;;;;4347025;33;42970;-77
2022/07/08 11:34:49;;;;;;;;;;;17.80;96.70;;;;;;4347205;32;44868;-78
2022/07/08 11:37:17;;;;;;;;;;;17.80;96.90;;;;;;4345834;33;43475;-78
2022/07/08 11:39:44;;;;;;;;;;;17.80;96.70;;;;;;4347504;33;43247;-79
2022/07/08 11:42:12;;;;;;;;;;;17.90;96.70;;;;;;4347100;33;46154;-76
2022/07/08 11:44:39;;;;;;;;;;;17.90;96.70;;;;;;4347354;33;44200;-77
2022/07/08 11:47:06;;;;;;;;;;;17.90;96.60;;;;;;4346847;33;43640;-76
2022/07/08 11:49:40;;;;;;;;;;;17.90;96.60;;;;;;4346641;33;43954;-77
2022/07/08 11:52:07;;;;;;;;;;;17.90;96.60;;;;;;4346135;33;44221;-77
2022/07/08 11:54:34;;;;;;;;;;;18.00;96.60;;;;;;4345489;33;43734;-76
2022/07/08 11:57:02;;;;;;;;;;;18.00;96.60;;;;;;4345809;33;42895;-76
2022/07/08 11:59:30;;;;;;;;;;;18.00;96.90;;;;;;4345844;33;44114;-78
2022/07/08 12:01:58;;;;;;;;;;;18.10;96.80;;;;;;4345287;33;44896;-78
2022/07/08 12:04:25;;;;;;;;;;;18.10;96.80;;;;;;4347148;33;43016;-78
2022/07/08 12:06:53;;;;;;;;;;;18.20;97.10;;;;;;4346824;33;44196;-76
2022/07/08 12:09:21;;;;;;;;;;;18.10;96.80;;;;;;4346184;33;44186;-77
2022/07/08 12:11:52;;;;;;;;;;;18.20;96.80;;;;;;4345342;33;45145;-78
2022/07/08 12:14:20;;;;;;;;;;;18.20;96.80;;;;;;4347099;33;21657;-78
2022/07/08 12:16:50;;;;;;;;;;;18.20;96.80;;;;;;4346450;33;45044;-76
2022/07/08 12:19:52;;;;;;;;;;;18.20;96.80;;;;;;4345832;33;45557;-77
2022/07/08 12:22:55;;;;;;;;;;;18.30;96.70;;;;;;4307191;33;41894;-77
2022/07/08 12:25:22;;;;;;;;;;;18.30;96.90;;;;;;4286293;33;43482;-77
2022/07/08 12:28:01;;;;;;;;;;;18.30;97.00;;;;;;4343007;32;42716;-76
2022/07/08 12:30:30;;;;;;;;;;;18.30;97.00;;;;;;4345930;33;43556;-78
2022/07/08 12:33:01;;;;;;;;;;;18.40;97.00;;;;;;4345362;33;44061;-78
2022/07/08 12:35:46;;;;;;;;;;;18.30;96.90;;;;;;4346408;33;44183;-78
2022/07/08 12:38:15;;;;;;;;;;;18.40;97.00;;;;;;4346270;33;44243;-77
2022/07/08 12:40:46;;;;;;;;;;;18.50;96.90;;;;;;4346092;33;44189;-79
2022/07/08 12:43:16;;;;;;;;;;;18.50;96.50;;;;;;4346383;33;44232;-78
2022/07/08 12:45:44;;;;;;;;;;;18.50;96.80;;;;;;4345452;33;43186;-79
2022/07/08 12:48:11;;;;;;;;;;;18.50;96.90;;;;;;4345500;33;43171;-77
2022/07/08 12:50:39;;;;;;;;;;;18.50;96.70;;;;;;4346588;33;44349;-76
2022/07/08 12:53:06;;;;;;;;;;;18.60;96.60;;;;;;4346160;33;44225;-77
2022/07/08 12:55:33;;;;;;;;;;;18.60;96.60;;;;;;4346110;33;43030;-76
2022/07/08 12:58:01;;;;;;;;;;;18.60;96.80;;;;;;4346276;33;44959;-78
2022/07/08 13:00:28;;;;;;;;;;;18.60;96.90;;;;;;4346396;33;43113;-76
2022/07/08 13:02:55;;;;;;;;;;;18.70;96.90;;;;;;4344883;33;43570;-77
2022/07/08 13:05:22;;;;;;;;;;;18.70;96.80;;;;;;4345962;33;42843;-79
2022/07/08 13:07:49;;;;;;;;;;;18.70;96.70;;;;;;4344772;33;46058;-78
2022/07/08 13:10:16;;;;;;;;;;;18.80;96.60;;;;;;4346144;33;42385;-79
2022/07/08 13:12:43;;;;;;;;;;;18.80;96.40;;;;;;4345150;33;44245;-78
2022/07/08 13:15:10;;;;;;;;;;;18.80;96.60;;;;;;4345220;33;43866;-77
2022/07/08 13:17:40;;;;;;;;;;;18.80;96.60;;;;;;4344670;33;43468;-77
2022/07/08 13:20:07;;;;;;;;;;;18.80;96.50;;;;;;4345957;33;43407;-78
2022/07/08 13:22:34;;;;;;;;;;;18.80;96.60;;;;;;4345591;33;43966;-79
2022/07/08 13:25:02;;;;;;;;;;;18.90;96.60;;;;;;4344494;33;43014;-79
2022/07/08 13:27:29;;;;;;;;;;;18.90;96.40;;;;;;4344931;33;44928;-78
2022/07/08 13:29:56;;;;;;;;;;;18.90;96.30;;;;;;4345485;33;42260;-78
2022/07/08 13:32:24;;;;;;;;;;;18.90;96.30;;;;;;4344741;33;43961;-78
2022/07/08 13:34:52;;;;;;;;;;;19.00;96.50;;;;;;4344780;33;43194;-78
2022/07/08 13:37:33;;;;;;;;;;;19.00;96.40;;;;;;4345537;33;42241;-76
2022/07/08 13:40:01;;;;;;;;;;;19.00;96.60;;;;;;4345813;33;43185;-77
2022/07/08 13:42:28;;;;;;;;;;;19.00;96.60;;;;;;4345879;33;43682;-76
2022/07/08 13:44:55;;;;;;;;;;;19.10;96.60;;;;;;4344442;33;43067;-78
2022/07/08 13:47:22;;;;;;;;;;;19.10;96.40;;;;;;4345288;33;44101;-78
2022/07/08 13:49:49;;;;;;;;;;;19.10;96.30;;;;;;4344201;33;43826;-78
2022/07/08 13:52:16;;;;;;;;;;;19.20;96.10;;;;;;4344639;33;43545;-77
2022/07/08 13:54:59;;;;;;;;;;;19.20;96.40;;;;;;4345676;33;44363;-76
2022/07/08 13:57:26;;;;;;;;;;;19.20;96.50;;;;;;4345283;33;43714;-77
2022/07/08 13:59:53;;;;;;;;;;;19.20;96.40;;;;;;4344315;33;43713;-76
2022/07/08 14:02:20;;;;;;;;;;;19.20;96.50;;;;;;4350256;32;43018;-76
2022/07/08 14:04:48;;;;;;;;;;;19.30;96.40;;;;;;4360186;32;43689;-78
2022/07/08 14:07:15;;;;;;;;;;;19.30;96.40;;;;;;4360281;32;44350;-77
2022/07/08 14:09:44;;;;;;;;;;;19.30;96.30;;;;;;4359779;32;44011;-77
2022/07/08 14:12:11;;;;;;;;;;;19.30;96.20;;;;;;4360145;32;44144;-76
2022/07/08 14:14:38;;;;;;;;;;;19.40;96.40;;;;;;4360095;32;44224;-77
2022/07/08 14:17:05;;;;;;;;;;;19.40;96.20;;;;;;4346694;32;43012;-77
2022/07/08 14:19:32;;;;;;;;;;;19.40;96.30;;;;;;4359740;32;42831;-76
2022/07/08 14:21:59;;;;;;;;;;;19.40;96.40;;;;;;4360135;32;44259;-76
2022/07/08 14:24:36;;;;;;;;;;;19.40;96.40;;;;;;4359661;32;44953;-76